メインページ
METAR-TAF:

METAR-TAF

空港 :

シンガポール, シンガポール

シンガポール・チャンギ国際空港

緯度: 01-22N, 経度: 103-59E, 海抜: 5m

現時点の気象観測

当レポートは33分前の20:30(UTC)に作成
変向風 2kt
気温 26°C
湿度 89%
気圧 1011 hPa
視程: 8000m
高度1800ftの雲はほとんどない
高度30000ftの千切れ雲あり

METAR: WSSS 292030Z VRB02KT 8000 FEW018 BKN300 26/24 Q1011 NOSIG

時間: 05:03 (21:03 UTC)

予報

当レポートは4時間3分前の17:00(UTC)に作成
予報は29日の 18時(UTC)から 31日の 00時(UTC)まで有効
変向風 7kt
視程10km以上
高度1800ftの雲はほとんどない, 積乱雲.
高度2000ftの雲は散在している
30日の 03時(UTC)から 30日の 07時(UTC)まで一時的に
視程: 3000m
高度1200ftの雲はほとんどない, 積乱雲.
高度1500ftの千切れ雲あり
激しい雷雨, 雨

TAF: WSSS 291700Z 2918/3100 VRB07KT 9999 FEW018CB SCT020 TEMPO 3003/3007 3000 TSRA FEW012CB BKN015

4,000以上の空港の気象観測と天気予報(METAR報とTAF報)

利用可能な観測所は地図上に黄色い丸と赤い丸で示す。

丸の上にカーソルを重ねると観測所名を参照できる。

次にクリックすると気象観測と天気予報を参照できる。

マップの切り替え:黒色「×」印の緑ボタンをクリックして拡大、「-」印の緑ボタンをクリックして縮小、緑色の三角印をクリックして隣りの地図に切り替え


METAR-TAF: